LPE2232 SPJC-SPZO
Flight info
| Callsign | LPE2232 |
|---|---|
| Flight time | 0h 53m |
| Altitude | 37000 |
| Route | PAKOL UM668 POVLO DCT DARKI |
| Aircraft | A320/M-SDE1E2E3FGHIRWYZ/SB1 |
Departure
| Time | 2026-04-28 18:34 |
|---|---|
| Airport | Jorge Chávez International Airport (SPJC) |
Arrival
| Time | 2026-04-28 19:27 |
|---|---|
| Airport | Alejandro Velasco Astete International Airport (SPZO) |
| Time | Latitude | Longitude | Altitude | Speed | Heading |
|---|---|---|---|---|---|
| 2026-04-28 18:21 | -12.02768 | -77.11467 | 85 ft | 0 kts | 244° |
| 2026-04-28 18:24 | -12.02763 | -77.11457 | 85 ft | 4 kts | 244° |
| 2026-04-28 18:24 | -12.02754 | -77.11437 | 84 ft | 3 kts | 245° |
| 2026-04-28 18:25 | -12.02750 | -77.11416 | 84 ft | 4 kts | 310° |
| 2026-04-28 18:25 | -12.02770 | -77.11402 | 83 ft | 4 kts | 334° |
| 2026-04-28 18:25 | -12.02775 | -77.11399 | 85 ft | 1 kts | 334° |
| 2026-04-28 18:28 | -12.02765 | -77.11404 | 83 ft | 5 kts | 334° |
| 2026-04-28 18:28 | -12.02717 | -77.11427 | 84 ft | 11 kts | 335° |
| 2026-04-28 18:28 | -12.02632 | -77.11469 | 82 ft | 16 kts | 334° |
| 2026-04-28 18:28 | -12.02523 | -77.11522 | 82 ft | 18 kts | 334° |
| 2026-04-28 18:29 | -12.02402 | -77.11583 | 82 ft | 20 kts | 334° |
| 2026-04-28 18:29 | -12.02269 | -77.11647 | 69 ft | 23 kts | 334° |
| 2026-04-28 18:29 | -12.02121 | -77.11720 | 66 ft | 21 kts | 334° |
| 2026-04-28 18:29 | -12.01984 | -77.11788 | 59 ft | 22 kts | 334° |
| 2026-04-28 18:30 | -12.01868 | -77.11844 | 60 ft | 14 kts | 342° |
| 2026-04-28 18:30 | -12.01826 | -77.11809 | 64 ft | 12 kts | 54° |
| 2026-04-28 18:30 | -12.01735 | -77.11831 | 60 ft | 12 kts | 334° |
| 2026-04-28 18:30 | -12.01645 | -77.11878 | 61 ft | 17 kts | 333° |
| 2026-04-28 18:31 | -12.01530 | -77.11936 | 58 ft | 21 kts | 334° |
| 2026-04-28 18:31 | -12.01390 | -77.12005 | 55 ft | 23 kts | 334° |
| 2026-04-28 18:31 | -12.01271 | -77.12081 | 60 ft | 19 kts | 308° |
| 2026-04-28 18:31 | -12.01167 | -77.12182 | 55 ft | 22 kts | 333° |
| 2026-04-28 18:32 | -12.01019 | -77.12255 | 52 ft | 25 kts | 334° |
| 2026-04-28 18:32 | -12.00898 | -77.12312 | 51 ft | 13 kts | 341° |
| 2026-04-28 18:32 | -12.00836 | -77.12260 | 52 ft | 12 kts | 63° |
| 2026-04-28 18:32 | -12.00801 | -77.12189 | 51 ft | 11 kts | 64° |
| 2026-04-28 18:33 | -12.00800 | -77.12119 | 49 ft | 14 kts | 135° |
| 2026-04-28 18:33 | -12.01037 | -77.12001 | 55 ft | 75 kts | 154° |
| 2026-04-28 18:33 | -12.01732 | -77.11658 | 63 ft | 144 kts | 154° |
| 2026-04-28 18:33 | -12.02787 | -77.11143 | 312 ft | 177 kts | 156° |
| 2026-04-28 18:34 | -12.03887 | -77.10596 | 1122 ft | 175 kts | 156° |
| 2026-04-28 18:34 | -12.05009 | -77.10041 | 1763 ft | 188 kts | 157° |
| 2026-04-28 18:34 | -12.06259 | -77.09430 | 2191 ft | 211 kts | 156° |
| 2026-04-28 18:34 | -12.07656 | -77.08744 | 2641 ft | 235 kts | 155° |
| 2026-04-28 18:35 | -12.09183 | -77.07989 | 3095 ft | 258 kts | 154° |
| 2026-04-28 18:35 | -12.10827 | -77.07173 | 3861 ft | 266 kts | 153° |
| 2026-04-28 18:35 | -12.12413 | -77.06178 | 4722 ft | 271 kts | 136° |
| 2026-04-28 18:35 | -12.13548 | -77.04630 | 5541 ft | 275 kts | 120° |
| 2026-04-28 18:36 | -12.14518 | -77.02921 | 6358 ft | 280 kts | 120° |
| 2026-04-28 18:36 | -12.15497 | -77.01183 | 7129 ft | 284 kts | 120° |
| 2026-04-28 18:36 | -12.16476 | -76.99443 | 7893 ft | 287 kts | 120° |
| 2026-04-28 18:36 | -12.17476 | -76.97662 | 8672 ft | 291 kts | 120° |
| 2026-04-28 18:37 | -12.18491 | -76.95858 | 9447 ft | 294 kts | 120° |
| 2026-04-28 18:37 | -12.19519 | -76.94034 | 10180 ft | 298 kts | 120° |
| 2026-04-28 18:37 | -12.20595 | -76.92126 | 10463 ft | 320 kts | 120° |
| 2026-04-28 18:37 | -12.21747 | -76.90091 | 10776 ft | 337 kts | 120° |
| 2026-04-28 18:38 | -12.22933 | -76.87996 | 11361 ft | 343 kts | 120° |
| 2026-04-28 18:38 | -12.24124 | -76.85891 | 12026 ft | 346 kts | 120° |
| 2026-04-28 18:38 | -12.25336 | -76.83748 | 12654 ft | 351 kts | 120° |
| 2026-04-28 18:38 | -12.26565 | -76.81577 | 13288 ft | 354 kts | 120° |
| 2026-04-28 18:39 | -12.27810 | -76.79379 | 13909 ft | 358 kts | 120° |
| 2026-04-28 18:39 | -12.29062 | -76.77164 | 14495 ft | 361 kts | 120° |
| 2026-04-28 18:39 | -12.30321 | -76.74931 | 15017 ft | 364 kts | 120° |
| 2026-04-28 18:39 | -12.31577 | -76.72705 | 15568 ft | 367 kts | 120° |
| 2026-04-28 18:40 | -12.32862 | -76.70435 | 16123 ft | 369 kts | 120° |
| 2026-04-28 18:40 | -12.34158 | -76.68148 | 16680 ft | 372 kts | 120° |
| 2026-04-28 18:40 | -12.35462 | -76.65843 | 17240 ft | 375 kts | 120° |
| 2026-04-28 18:40 | -12.36770 | -76.63523 | 17828 ft | 378 kts | 120° |
| 2026-04-28 18:41 | -12.38086 | -76.61183 | 18370 ft | 381 kts | 119° |
| 2026-04-28 18:41 | -12.39415 | -76.58823 | 18836 ft | 384 kts | 119° |
| 2026-04-28 18:41 | -12.40751 | -76.56449 | 19301 ft | 387 kts | 120° |
| 2026-04-28 18:41 | -12.42085 | -76.54079 | 19749 ft | 390 kts | 120° |
| 2026-04-28 18:42 | -12.43451 | -76.51654 | 20168 ft | 393 kts | 120° |
| 2026-04-28 18:42 | -12.44823 | -76.49217 | 20652 ft | 396 kts | 120° |
| 2026-04-28 18:42 | -12.46206 | -76.46760 | 21036 ft | 401 kts | 120° |
| 2026-04-28 18:42 | -12.47606 | -76.44273 | 21459 ft | 404 kts | 120° |
| 2026-04-28 18:43 | -12.49002 | -76.41794 | 21883 ft | 407 kts | 120° |
| 2026-04-28 18:43 | -12.50420 | -76.39275 | 22306 ft | 410 kts | 120° |
| 2026-04-28 18:43 | -12.51848 | -76.36735 | 22725 ft | 412 kts | 121° |
| 2026-04-28 18:43 | -12.53288 | -76.34181 | 23178 ft | 415 kts | 121° |
| 2026-04-28 18:44 | -12.54739 | -76.31607 | 23602 ft | 418 kts | 121° |
| 2026-04-28 18:44 | -12.57641 | -76.26440 | 24258 ft | 423 kts | 121° |
| 2026-04-28 18:44 | -12.59131 | -76.23781 | 24575 ft | 427 kts | 120° |
| 2026-04-28 18:45 | -12.60597 | -76.21168 | 24966 ft | 429 kts | 120° |
| 2026-04-28 18:45 | -12.62089 | -76.18513 | 25317 ft | 432 kts | 120° |
| 2026-04-28 18:45 | -12.63594 | -76.15839 | 25641 ft | 435 kts | 120° |
| 2026-04-28 18:45 | -12.65109 | -76.13141 | 25954 ft | 438 kts | 120° |
| 2026-04-28 18:46 | -12.66631 | -76.10425 | 26272 ft | 441 kts | 120° |
| 2026-04-28 18:46 | -12.68158 | -76.07693 | 26614 ft | 443 kts | 120° |
| 2026-04-28 18:46 | -12.69698 | -76.04944 | 26933 ft | 445 kts | 120° |
| 2026-04-28 18:46 | -12.71247 | -76.02182 | 27237 ft | 448 kts | 120° |
| 2026-04-28 18:47 | -12.72804 | -75.99405 | 27552 ft | 451 kts | 120° |
| 2026-04-28 18:47 | -12.74224 | -75.96531 | 27881 ft | 453 kts | 112° |
| 2026-04-28 18:47 | -12.75207 | -75.93455 | 28201 ft | 456 kts | 103° |
| 2026-04-28 18:47 | -12.75947 | -75.90286 | 28572 ft | 458 kts | 103° |
| 2026-04-28 18:48 | -12.76677 | -75.87146 | 28891 ft | 460 kts | 103° |
| 2026-04-28 18:48 | -12.77424 | -75.83942 | 29187 ft | 463 kts | 103° |
| 2026-04-28 18:48 | -12.78175 | -75.80719 | 29503 ft | 465 kts | 103° |
| 2026-04-28 18:48 | -12.78933 | -75.77476 | 29877 ft | 468 kts | 103° |
| 2026-04-28 18:49 | -12.79695 | -75.74228 | 30167 ft | 471 kts | 103° |
| 2026-04-28 18:49 | -12.79953 | -75.73129 | 30265 ft | 471 kts | 103° |
| 2026-04-28 18:49 | -12.81233 | -75.67682 | 30670 ft | 475 kts | 103° |
| 2026-04-28 18:49 | -12.82009 | -75.64378 | 30900 ft | 477 kts | 103° |
| 2026-04-28 18:50 | -12.82786 | -75.61066 | 31180 ft | 479 kts | 103° |
| 2026-04-28 18:50 | -12.83563 | -75.57734 | 31390 ft | 481 kts | 103° |
| 2026-04-28 18:50 | -12.84345 | -75.54379 | 31618 ft | 483 kts | 102° |
| 2026-04-28 18:50 | -12.85128 | -75.51027 | 31905 ft | 484 kts | 102° |
| 2026-04-28 18:51 | -12.85901 | -75.47713 | 32247 ft | 483 kts | 102° |
| 2026-04-28 18:51 | -12.86684 | -75.44361 | 32572 ft | 483 kts | 102° |
| 2026-04-28 18:51 | -12.87464 | -75.41015 | 32891 ft | 483 kts | 102° |
| 2026-04-28 18:51 | -12.88245 | -75.37662 | 33158 ft | 484 kts | 102° |
| 2026-04-28 18:52 | -12.89024 | -75.34308 | 33479 ft | 484 kts | 101° |
| 2026-04-28 18:52 | -12.89802 | -75.30953 | 33788 ft | 484 kts | 101° |
| 2026-04-28 18:52 | -12.90579 | -75.27593 | 34102 ft | 484 kts | 101° |
| 2026-04-28 18:52 | -12.91355 | -75.24235 | 34428 ft | 484 kts | 101° |
| 2026-04-28 18:53 | -12.92135 | -75.20868 | 34719 ft | 484 kts | 101° |
| 2026-04-28 18:53 | -12.92916 | -75.17498 | 34977 ft | 484 kts | 101° |
| 2026-04-28 18:53 | -12.93696 | -75.14142 | 35253 ft | 483 kts | 101° |
| 2026-04-28 18:53 | -12.94475 | -75.10794 | 35524 ft | 483 kts | 101° |
| 2026-04-28 18:54 | -12.95245 | -75.07479 | 35783 ft | 483 kts | 101° |
| 2026-04-28 18:54 | -12.96023 | -75.04129 | 36100 ft | 481 kts | 101° |
| 2026-04-28 18:54 | -12.96792 | -75.00801 | 36419 ft | 479 kts | 101° |
| 2026-04-28 18:54 | -12.97309 | -74.98556 | 36654 ft | 478 kts | 100° |
| 2026-04-28 18:55 | -12.98067 | -74.95271 | 37002 ft | 476 kts | 100° |
| 2026-04-28 18:55 | -12.98827 | -74.91976 | 37301 ft | 475 kts | 100° |
| 2026-04-28 18:55 | -13.00340 | -74.85401 | 37418 ft | 471 kts | 100° |
| 2026-04-28 18:56 | -13.01843 | -74.78868 | 37420 ft | 470 kts | 100° |
| 2026-04-28 18:56 | -13.03349 | -74.72342 | 37424 ft | 470 kts | 100° |
| 2026-04-28 18:57 | -13.04852 | -74.65783 | 37435 ft | 475 kts | 100° |
| 2026-04-28 18:57 | -13.06361 | -74.59159 | 37433 ft | 478 kts | 100° |
| 2026-04-28 18:58 | -13.07880 | -74.52521 | 37431 ft | 478 kts | 100° |
| 2026-04-28 18:58 | -13.09400 | -74.45933 | 37410 ft | 477 kts | 100° |
| 2026-04-28 18:59 | -13.10920 | -74.39298 | 37377 ft | 477 kts | 100° |
| 2026-04-28 18:59 | -13.12430 | -74.32672 | 37383 ft | 476 kts | 100° |
| 2026-04-28 19:00 | -13.13935 | -74.26072 | 37379 ft | 474 kts | 100° |
| 2026-04-28 19:00 | -13.15430 | -74.19502 | 37380 ft | 472 kts | 99° |
| 2026-04-28 19:01 | -13.16920 | -74.12939 | 37382 ft | 471 kts | 99° |
| 2026-04-28 19:01 | -13.18401 | -74.06428 | 37385 ft | 470 kts | 99° |
| 2026-04-28 19:02 | -13.19883 | -73.99890 | 37417 ft | 470 kts | 100° |
| 2026-04-28 19:02 | -13.21364 | -73.93368 | 37417 ft | 469 kts | 100° |
| 2026-04-28 19:03 | -13.22841 | -73.86859 | 37399 ft | 468 kts | 100° |
| 2026-04-28 19:03 | -13.24310 | -73.80365 | 37395 ft | 467 kts | 99° |
| 2026-04-28 19:04 | -13.25773 | -73.73872 | 37365 ft | 467 kts | 100° |
| 2026-04-28 19:04 | -13.27234 | -73.67367 | 37357 ft | 467 kts | 99° |
| 2026-04-28 19:05 | -13.28691 | -73.60916 | 37332 ft | 466 kts | 100° |
| 2026-04-28 19:05 | -13.30151 | -73.54425 | 37338 ft | 466 kts | 100° |
| 2026-04-28 19:06 | -13.31353 | -73.49038 | 37322 ft | 466 kts | 100° |
| 2026-04-28 19:06 | -13.33051 | -73.41453 | 37309 ft | 466 kts | 100° |
| 2026-04-28 19:07 | -13.34512 | -73.34959 | 37290 ft | 466 kts | 100° |
| 2026-04-28 19:07 | -13.35967 | -73.28464 | 37294 ft | 467 kts | 100° |
| 2026-04-28 19:08 | -13.37421 | -73.21958 | 37286 ft | 468 kts | 100° |
| 2026-04-28 19:08 | -13.38879 | -73.15446 | 37288 ft | 468 kts | 100° |
| 2026-04-28 19:09 | -13.40333 | -73.08931 | 37291 ft | 468 kts | 100° |
| 2026-04-28 19:09 | -13.41775 | -73.02437 | 37294 ft | 468 kts | 100° |
| 2026-04-28 19:10 | -13.43222 | -72.95914 | 37298 ft | 469 kts | 100° |
| 2026-04-28 19:10 | -13.44673 | -72.89374 | 37291 ft | 469 kts | 100° |
| 2026-04-28 19:11 | -13.46208 | -72.82839 | 36865 ft | 471 kts | 102° |
| 2026-04-28 19:11 | -13.47067 | -72.79591 | 36296 ft | 472 kts | 103° |
| 2026-04-28 19:11 | -13.47963 | -72.76346 | 35750 ft | 472 kts | 104° |
| 2026-04-28 19:12 | -13.48867 | -72.73103 | 35256 ft | 471 kts | 104° |
| 2026-04-28 19:12 | -13.49749 | -72.69908 | 34776 ft | 469 kts | 104° |
| 2026-04-28 19:12 | -13.50625 | -72.66683 | 34216 ft | 468 kts | 104° |
| 2026-04-28 19:12 | -13.51483 | -72.63457 | 33571 ft | 466 kts | 104° |
| 2026-04-28 19:13 | -13.52326 | -72.60240 | 32934 ft | 465 kts | 104° |
| 2026-04-28 19:13 | -13.53165 | -72.57019 | 32320 ft | 464 kts | 104° |
| 2026-04-28 19:13 | -13.53997 | -72.53827 | 31725 ft | 462 kts | 105° |
| 2026-04-28 19:13 | -13.54831 | -72.50641 | 31123 ft | 461 kts | 105° |
| 2026-04-28 19:14 | -13.55664 | -72.47471 | 30546 ft | 459 kts | 105° |
| 2026-04-28 19:14 | -13.56488 | -72.44349 | 29934 ft | 457 kts | 105° |
| 2026-04-28 19:14 | -13.57318 | -72.41204 | 29276 ft | 455 kts | 105° |
| 2026-04-28 19:14 | -13.58142 | -72.38067 | 28609 ft | 453 kts | 105° |
| 2026-04-28 19:15 | -13.58963 | -72.34937 | 27969 ft | 451 kts | 105° |
| 2026-04-28 19:15 | -13.59781 | -72.31834 | 27353 ft | 448 kts | 105° |
| 2026-04-28 19:15 | -13.60594 | -72.28749 | 26754 ft | 445 kts | 105° |
| 2026-04-28 19:15 | -13.61129 | -72.26712 | 26361 ft | 444 kts | 105° |
| 2026-04-28 19:16 | -13.62197 | -72.22634 | 25600 ft | 438 kts | 106° |
| 2026-04-28 19:16 | -13.62972 | -72.19672 | 25177 ft | 419 kts | 106° |
| 2026-04-28 19:16 | -13.63706 | -72.16858 | 24878 ft | 402 kts | 106° |
| 2026-04-28 19:16 | -13.64418 | -72.14133 | 24497 ft | 386 kts | 106° |
| 2026-04-28 19:17 | -13.65101 | -72.11520 | 24119 ft | 372 kts | 106° |
| 2026-04-28 19:17 | -13.65766 | -72.08986 | 23710 ft | 359 kts | 106° |
| 2026-04-28 19:17 | -13.66399 | -72.06577 | 23268 ft | 347 kts | 106° |
| 2026-04-28 19:17 | -13.67022 | -72.04208 | 22822 ft | 337 kts | 106° |
| 2026-04-28 19:18 | -13.67623 | -72.01912 | 22374 ft | 328 kts | 106° |
| 2026-04-28 19:18 | -13.68290 | -71.99691 | 21918 ft | 321 kts | 111° |
| 2026-04-28 19:18 | -13.69156 | -71.97596 | 21588 ft | 317 kts | 117° |
| 2026-04-28 19:18 | -13.70196 | -71.95613 | 21283 ft | 314 kts | 122° |
| 2026-04-28 19:19 | -13.71308 | -71.93686 | 20988 ft | 312 kts | 122° |
| 2026-04-28 19:19 | -13.72409 | -71.91766 | 20697 ft | 310 kts | 121° |
| 2026-04-28 19:19 | -13.73502 | -71.89858 | 20406 ft | 309 kts | 122° |
| 2026-04-28 19:19 | -13.74594 | -71.87952 | 20105 ft | 308 kts | 122° |
| 2026-04-28 19:20 | -13.75672 | -71.86070 | 19816 ft | 308 kts | 122° |
| 2026-04-28 19:20 | -13.76721 | -71.84162 | 19528 ft | 307 kts | 116° |
| 2026-04-28 19:20 | -13.77392 | -71.82083 | 19246 ft | 307 kts | 101° |
| 2026-04-28 19:20 | -13.77587 | -71.79900 | 18967 ft | 306 kts | 89° |
| 2026-04-28 19:21 | -13.77319 | -71.77728 | 18690 ft | 306 kts | 76° |
| 2026-04-28 19:21 | -13.76610 | -71.75680 | 18413 ft | 304 kts | 63° |
| 2026-04-28 19:21 | -13.75491 | -71.73839 | 18072 ft | 304 kts | 51° |
| 2026-04-28 19:21 | -13.73996 | -71.72288 | 17623 ft | 306 kts | 37° |
| 2026-04-28 19:22 | -13.72205 | -71.71119 | 17097 ft | 303 kts | 24° |
| 2026-04-28 19:22 | -13.70887 | -71.70581 | 16763 ft | 300 kts | 15° |
| 2026-04-28 19:22 | -13.68191 | -71.70141 | 16291 ft | 288 kts | 359° |
| 2026-04-28 19:22 | -13.66221 | -71.70309 | 15829 ft | 283 kts | 347° |
| 2026-04-28 19:23 | -13.64341 | -71.70885 | 15360 ft | 280 kts | 336° |
| 2026-04-28 19:23 | -13.62629 | -71.71808 | 14897 ft | 276 kts | 325° |
| 2026-04-28 19:23 | -13.61153 | -71.73045 | 14486 ft | 272 kts | 314° |
| 2026-04-28 19:23 | -13.59978 | -71.74521 | 14074 ft | 268 kts | 303° |
| 2026-04-28 19:24 | -13.59111 | -71.76198 | 13743 ft | 264 kts | 292° |
| 2026-04-28 19:24 | -13.58442 | -71.77934 | 13488 ft | 257 kts | 292° |
| 2026-04-28 19:24 | -13.57788 | -71.79600 | 13219 ft | 249 kts | 294° |
| 2026-04-28 19:24 | -13.57160 | -71.81183 | 12865 ft | 227 kts | 293° |
| 2026-04-28 19:25 | -13.56610 | -71.82629 | 12517 ft | 205 kts | 291° |
| 2026-04-28 19:25 | -13.56166 | -71.83940 | 12251 ft | 185 kts | 290° |
| 2026-04-28 19:25 | -13.55761 | -71.85139 | 12040 ft | 171 kts | 292° |
| 2026-04-28 19:25 | -13.55267 | -71.86216 | 11733 ft | 164 kts | 300° |
| 2026-04-28 19:26 | -13.54721 | -71.87221 | 11504 ft | 162 kts | 297° |
| 2026-04-28 19:26 | -13.54296 | -71.88306 | 11348 ft | 164 kts | 288° |
| 2026-04-28 19:26 | -13.54046 | -71.89454 | 11217 ft | 166 kts | 279° |
| 2026-04-28 19:26 | -13.53910 | -71.90620 | 11067 ft | 165 kts | 277° |
| 2026-04-28 19:27 | -13.53792 | -71.91793 | 10864 ft | 165 kts | 278° |
| 2026-04-28 19:27 | -13.53669 | -71.92951 | 10753 ft | 156 kts | 278° |
| 2026-04-28 19:27 | -13.53572 | -71.93877 | 10802 ft | 91 kts | 276° |
| 2026-04-28 19:27 | -13.53534 | -71.94260 | 10815 ft | 15 kts | 276° |
| 2026-04-28 19:28 | -13.53577 | -71.94342 | 10814 ft | 14 kts | 191° |
| 2026-04-28 19:28 | -13.53651 | -71.94363 | 10815 ft | 10 kts | 235° |
| 2026-04-28 19:28 | -13.53658 | -71.94445 | 10817 ft | 8 kts | 240° |
| 2026-04-28 19:28 | -13.53727 | -71.94463 | 10817 ft | 11 kts | 185° |
| 2026-04-28 19:29 | -13.53772 | -71.94429 | 10817 ft | 4 kts | 114° |
| 2026-04-28 19:29 | -13.53778 | -71.94415 | 10817 ft | 2 kts | 116° |
| 2026-04-28 19:36 | -13.53773 | -71.94426 | 10817 ft | 4 kts | 111° |
| 2026-04-28 19:36 | -13.53768 | -71.94451 | 10817 ft | 4 kts | 72° |
| 2026-04-28 19:36 | -13.53777 | -71.94463 | 10815 ft | 1 kts | 1° |
| 2026-04-28 19:38 | -13.53774 | -71.94462 | 10815 ft | 4 kts | 1° |
| 2026-04-28 19:38 | -13.53708 | -71.94459 | 10817 ft | 14 kts | 10° |
| 2026-04-28 19:38 | -13.53644 | -71.94509 | 10817 ft | 16 kts | 275° |
| 2026-04-28 19:38 | -13.53630 | -71.94654 | 10824 ft | 23 kts | 276° |
| 2026-04-28 19:39 | -13.53613 | -71.94822 | 10833 ft | 23 kts | 276° |
| 2026-04-28 19:39 | -13.53599 | -71.94964 | 10849 ft | 17 kts | 276° |
| 2026-04-28 19:39 | -13.53588 | -71.95072 | 10858 ft | 14 kts | 275° |
| 2026-04-28 19:39 | -13.53577 | -71.95183 | 10862 ft | 17 kts | 276° |
| 2026-04-28 19:40 | -13.53569 | -71.95262 | 10864 ft | 16 kts | 276° |
| 2026-04-28 19:40 | -13.53556 | -71.95380 | 10869 ft | 17 kts | 276° |
| 2026-04-28 19:40 | -13.53477 | -71.95431 | 10864 ft | 15 kts | 6° |
| 2026-04-28 19:40 | -13.53421 | -71.95408 | 10867 ft | 1 kts | 71° |
| 2026-04-28 19:41 | -13.53421 | -71.95404 | 10867 ft | 0 kts | 81° |
| 2026-04-28 19:41 | -13.53420 | -71.95389 | 10865 ft | 6 kts | 90° |
| 2026-04-28 19:41 | -13.53422 | -71.95376 | 10865 ft | 0 kts | 95° |
| 2026-04-28 19:42 | -13.53428 | -71.95307 | 10868 ft | 37 kts | 96° |
| 2026-04-28 19:42 | -13.53483 | -71.94773 | 10831 ft | 111 kts | 96° |
| 2026-04-28 19:43 | -13.53585 | -71.93769 | 10799 ft | 168 kts | 96° |
| 2026-04-28 19:43 | -13.53725 | -71.92416 | 10962 ft | 200 kts | 94° |
| 2026-04-28 19:43 | -13.53873 | -71.91025 | 11973 ft | 198 kts | 94° |
| 2026-04-28 19:43 | -13.54035 | -71.89605 | 12352 ft | 203 kts | 99° |
| 2026-04-28 19:44 | -13.54442 | -71.88202 | 12829 ft | 208 kts | 112° |
| 2026-04-28 19:44 | -13.55069 | -71.86864 | 13382 ft | 205 kts | 115° |
| 2026-04-28 19:44 | -13.55612 | -71.85509 | 13716 ft | 204 kts | 107° |
| 2026-04-28 19:44 | -13.56083 | -71.84128 | 13924 ft | 204 kts | 107° |
| 2026-04-28 19:45 | -13.56672 | -71.82794 | 14160 ft | 205 kts | 123° |
| 2026-04-28 19:45 | -13.57550 | -71.81652 | 14532 ft | 207 kts | 129° |
| 2026-04-28 19:45 | -13.58476 | -71.80509 | 14873 ft | 208 kts | 129° |
| 2026-04-28 19:45 | -13.59400 | -71.79364 | 15242 ft | 208 kts | 129° |
| 2026-04-28 19:46 | -13.60176 | -71.78110 | 15637 ft | 208 kts | 110° |
| 2026-04-28 19:46 | -13.60507 | -71.76667 | 16176 ft | 208 kts | 91° |
| 2026-04-28 19:46 | -13.60371 | -71.75195 | 16666 ft | 208 kts | 72° |
| 2026-04-28 19:46 | -13.59781 | -71.73842 | 17065 ft | 209 kts | 53° |
| 2026-04-28 19:47 | -13.58788 | -71.72750 | 17404 ft | 210 kts | 34° |
| 2026-04-28 19:47 | -13.57498 | -71.72039 | 17577 ft | 220 kts | 16° |
| 2026-04-28 19:47 | -13.55947 | -71.71810 | 17719 ft | 233 kts | 355° |
| 2026-04-28 19:47 | -13.54330 | -71.72189 | 17861 ft | 245 kts | 333° |
| 2026-04-28 19:48 | -13.52895 | -71.73218 | 18006 ft | 259 kts | 311° |
| 2026-04-28 19:48 | -13.51749 | -71.74702 | 18168 ft | 273 kts | 306° |
| 2026-04-28 19:48 | -13.50558 | -71.76283 | 18313 ft | 287 kts | 306° |
| 2026-04-28 19:48 | -13.49287 | -71.77961 | 18441 ft | 307 kts | 306° |